Time;durP1;ratioP1;P1;durP2;ratioP2;P2;SDS_P1;SDS_P2;PMS_P1;PMS_P2;Temp;Humidity;BMP_temperature;BMP_pressure;BME280_temperature;BME280_humidity;BME280_pressure;Samples;Min_cycle;Max_cycle;Signal;HPM_P1;HPM_P2
2024/04/16 00:00:08;;;;;;;0.88;0.77;;;4.90;99.90;;;;;;5449011;26;20227;-74
2024/04/16 00:02:36;;;;;;;1.23;1.02;;;4.90;99.90;;;;;;5449347;26;20744;-74
2024/04/16 00:05:02;;;;;;;2.88;1.10;;;4.80;99.90;;;;;;5449472;26;20236;-74
2024/04/16 00:07:30;;;;;;;1.23;0.90;;;4.80;99.90;;;;;;5449224;26;20244;-74
2024/04/16 00:09:56;;;;;;;0.80;0.70;;;4.70;99.90;;;;;;5448987;26;21009;-74
2024/04/16 00:12:25;;;;;;;1.10;0.90;;;4.70;99.90;;;;;;5449285;26;20270;-74
2024/04/16 00:14:50;;;;;;;1.10;0.80;;;4.70;99.90;;;;;;5449366;26;20240;-74
2024/04/16 00:17:23;;;;;;;2.93;1.20;;;4.70;99.90;;;;;;5449065;26;20360;-74
2024/04/16 00:19:48;;;;;;;0.80;0.70;;;4.70;99.90;;;;;;5449686;26;20230;-74
2024/04/16 00:22:17;;;;;;;1.00;0.90;;;4.60;99.90;;;;;;5449548;26;20240;-74
2024/04/16 00:24:42;;;;;;;1.25;0.98;;;4.60;99.90;;;;;;5449727;26;20726;-74
2024/04/16 00:27:11;;;;;;;1.00;0.80;;;4.60;99.90;;;;;;5449491;26;20340;-74
2024/04/16 00:29:37;;;;;;;1.10;0.80;;;4.60;99.90;;;;;;5436156;26;20291;-74
2024/04/16 00:32:06;;;;;;;0.90;0.80;;;4.60;99.90;;;;;;5449880;26;20346;-74
2024/04/16 00:34:35;;;;;;;1.80;0.80;;;4.60;99.90;;;;;;5448599;26;20468;-73
2024/04/16 00:37:03;;;;;;;0.95;0.85;;;4.60;99.90;;;;;;5449544;26;20330;-74
2024/04/16 00:39:29;;;;;;;1.05;0.70;;;4.70;99.90;;;;;;5448650;26;20276;-74
2024/04/16 00:41:58;;;;;;;0.77;0.70;;;4.70;99.90;;;;;;5449349;26;20241;-74
2024/04/16 00:44:24;;;;;;;1.10;0.80;;;4.80;99.90;;;;;;5449211;26;20737;-74
2024/04/16 00:46:52;;;;;;;2.33;0.90;;;4.80;99.90;;;;;;5449418;26;20240;-74
2024/04/16 00:49:19;;;;;;;1.25;0.90;;;4.80;99.90;;;;;;5450586;26;20295;-74
2024/04/16 00:51:50;;;;;;;1.65;0.80;;;4.70;99.90;;;;;;5453144;26;20243;-75
2024/04/16 00:54:16;;;;;;;1.40;0.90;;;4.60;99.90;;;;;;5452567;26;20299;-75
2024/04/16 00:56:45;;;;;;;2.33;1.10;;;4.60;99.90;;;;;;5452963;26;20240;-74
2024/04/16 00:59:11;;;;;;;1.00;0.80;;;4.60;99.90;;;;;;5452243;26;20273;-74
2024/04/16 01:01:39;;;;;;;2.50;0.90;;;4.60;99.90;;;;;;5438183;26;20237;-75
2024/04/16 01:04:06;;;;;;;1.40;0.90;;;4.50;99.90;;;;;;5452928;26;20334;-75
2024/04/16 01:06:35;;;;;;;1.30;0.95;;;4.50;99.90;;;;;;5452660;26;20339;-74
2024/04/16 01:09:03;;;;;;;0.80;0.70;;;4.50;99.90;;;;;;5452506;26;20241;-74
2024/04/16 01:11:32;;;;;;;1.25;0.93;;;4.50;99.90;;;;;;5452424;26;20247;-74
2024/04/16 01:13:57;;;;;;;1.17;0.80;;;4.50;99.90;;;;;;5452870;26;20233;-74
2024/04/16 01:16:26;;;;;;;1.33;1.13;;;4.50;99.90;;;;;;5452224;26;20240;-74
2024/04/16 01:18:52;;;;;;;1.02;0.93;;;4.40;99.90;;;;;;5452083;26;20280;-74
2024/04/16 01:21:20;;;;;;;1.70;1.37;;;4.40;99.90;;;;;;5452096;26;20585;-74
2024/04/16 01:23:48;;;;;;;1.10;0.90;;;4.40;99.90;;;;;;5452372;26;20363;-74
2024/04/16 01:26:17;;;;;;;1.45;1.00;;;4.40;99.90;;;;;;5452174;26;20246;-74
2024/04/16 01:28:42;;;;;;;0.90;0.70;;;4.30;99.90;;;;;;5452052;26;20814;-74
2024/04/16 01:31:12;;;;;;;1.63;1.17;;;4.40;99.90;;;;;;5452055;26;20240;-74
2024/04/16 01:33:37;;;;;;;1.55;0.93;;;4.40;99.90;;;;;;5438014;26;20242;-74
2024/04/16 01:36:08;;;;;;;1.10;0.90;;;4.40;99.90;;;;;;5452181;26;20269;-74
2024/04/16 01:38:33;;;;;;;0.80;0.70;;;4.40;99.90;;;;;;5451648;26;20272;-74
2024/04/16 01:41:05;;;;;;;0.90;0.80;;;4.30;99.90;;;;;;5451974;26;20739;-74
2024/04/16 01:43:30;;;;;;;2.97;1.10;;;4.30;99.90;;;;;;5451975;26;20238;-74
2024/04/16 01:45:59;;;;;;;0.90;0.80;;;4.30;99.90;;;;;;5452023;26;20339;-74
2024/04/16 01:48:24;;;;;;;2.33;1.08;;;4.30;99.90;;;;;;5451592;26;20233;-74
2024/04/16 01:50:53;;;;;;;1.00;0.83;;;4.20;99.90;;;;;;5451813;26;20304;-74
2024/04/16 01:53:19;;;;;;;1.10;0.90;;;4.20;99.90;;;;;;5451684;26;20229;-74
2024/04/16 01:55:47;;;;;;;0.90;0.80;;;4.20;99.90;;;;;;5451856;26;20394;-74
2024/04/16 01:58:15;;;;;;;1.25;0.82;;;4.10;99.90;;;;;;5451593;26;20238;-74
2024/04/16 02:00:44;;;;;;;0.90;0.80;;;4.10;99.90;;;;;;5437701;26;20956;-74
2024/04/16 02:03:10;;;;;;;0.90;0.80;;;4.10;99.90;;;;;;5451812;26;20234;-74
2024/04/16 02:05:40;;;;;;;4.30;2.10;;;4.10;99.90;;;;;;5450837;26;20264;-74
2024/04/16 02:08:06;;;;;;;1.48;1.02;;;4.10;99.90;;;;;;5451360;26;20239;-74
2024/04/16 02:10:34;;;;;;;1.10;0.90;;;4.20;99.90;;;;;;5451331;26;20714;-74
2024/04/16 02:13:00;;;;;;;1.25;1.08;;;4.20;99.90;;;;;;5449994;26;20469;-75
2024/04/16 02:15:31;;;;;;;2.80;1.10;;;4.20;99.90;;;;;;5449838;26;20241;-75
2024/04/16 02:17:57;;;;;;;3.63;1.50;;;4.20;99.90;;;;;;5446138;26;20330;-75
2024/04/16 02:20:25;;;;;;;1.00;0.77;;;4.10;99.90;;;;;;5451046;26;20243;-74
2024/04/16 02:22:51;;;;;;;1.08;0.80;;;4.10;99.90;;;;;;5451696;26;20234;-75
2024/04/16 02:25:19;;;;;;;1.00;0.80;;;4.10;99.90;;;;;;5451419;26;20820;-74
2024/04/16 02:27:45;;;;;;;2.38;1.40;;;4.10;99.90;;;;;;5451396;26;20276;-74
2024/04/16 02:30:13;;;;;;;1.60;1.13;;;4.00;99.90;;;;;;5451296;26;20289;-74
2024/04/16 02:32:41;;;;;;;1.08;0.88;;;4.00;99.90;;;;;;5437583;26;20233;-74
2024/04/16 02:35:10;;;;;;;0.90;0.80;;;3.90;99.90;;;;;;5451385;26;20727;-74
2024/04/16 02:37:36;;;;;;;1.00;0.90;;;3.90;99.90;;;;;;5449515;26;20280;-75
2024/04/16 02:40:04;;;;;;;1.20;1.00;;;3.90;99.90;;;;;;5451049;26;20238;-74
2024/04/16 02:42:30;;;;;;;2.92;1.15;;;3.90;99.90;;;;;;5451392;26;20571;-74
2024/04/16 02:44:58;;;;;;;1.40;1.13;;;4.00;99.90;;;;;;5451519;26;20277;-74
2024/04/16 02:47:24;;;;;;;1.35;1.00;;;4.00;99.90;;;;;;5451029;26;20238;-74
2024/04/16 02:49:55;;;;;;;0.82;0.75;;;4.00;99.90;;;;;;5451099;26;20330;-74
2024/04/16 02:52:21;;;;;;;1.00;0.90;;;4.00;99.90;;;;;;5451196;26;20257;-74
2024/04/16 02:54:49;;;;;;;1.47;0.90;;;4.00;99.90;;;;;;5451326;26;20322;-74
2024/04/16 02:57:15;;;;;;;1.00;0.80;;;4.00;99.90;;;;;;5451051;26;20363;-75
2024/04/16 02:59:43;;;;;;;1.40;1.10;;;4.00;99.90;;;;;;5450564;26;20250;-74
2024/04/16 03:02:09;;;;;;;0.80;0.70;;;4.00;99.90;;;;;;5443479;26;20581;-74
2024/04/16 03:04:38;;;;;;;5.10;1.27;;;4.00;99.90;;;;;;5441666;26;20304;-74
2024/04/16 03:07:06;;;;;;;0.90;0.75;;;4.10;99.90;;;;;;5433643;26;20345;-75
2024/04/16 03:09:34;;;;;;;1.30;1.17;;;4.10;99.90;;;;;;5432887;26;20238;-75
2024/04/16 03:12:00;;;;;;;1.00;0.80;;;4.10;99.90;;;;;;5434397;26;20298;-74
2024/04/16 03:14:29;;;;;;;1.20;1.00;;;4.10;99.90;;;;;;5434418;26;20352;-76
2024/04/16 03:16:54;;;;;;;2.00;1.10;;;4.20;99.90;;;;;;5434064;26;20331;-76
2024/04/16 03:19:23;;;;;;;2.80;0.97;;;4.30;99.90;;;;;;5428399;26;21009;-75
2024/04/16 03:21:48;;;;;;;1.15;1.00;;;4.30;99.90;;;;;;5435805;26;20232;-75
2024/04/16 03:24:19;;;;;;;5.23;1.10;;;4.30;99.90;;;;;;5435109;26;20347;-75
2024/04/16 03:26:45;;;;;;;1.50;0.93;;;4.40;99.90;;;;;;5434663;26;20238;-76
2024/04/16 03:29:13;;;;;;;1.90;1.10;;;4.40;99.90;;;;;;5437912;26;20277;-75
2024/04/16 03:31:39;;;;;;;1.10;0.88;;;4.50;99.90;;;;;;5439972;26;20235;-75
2024/04/16 03:34:08;;;;;;;1.30;1.20;;;4.50;99.90;;;;;;5434757;26;20348;-75
2024/04/16 03:36:33;;;;;;;3.85;1.35;;;4.50;99.90;;;;;;5437026;26;20243;-76
2024/04/16 03:39:02;;;;;;;1.50;1.10;;;4.50;99.90;;;;;;5435017;26;21007;-75
2024/04/16 03:41:33;;;;;;;1.25;1.15;;;4.50;99.90;;;;;;5438209;26;20239;-75
2024/04/16 03:43:58;;;;;;;1.00;0.90;;;4.40;99.90;;;;;;5435891;26;20308;-76
2024/04/16 03:46:27;;;;;;;0.80;0.80;;;4.40;99.90;;;;;;5438209;26;20233;-76
2024/04/16 03:48:53;;;;;;;4.20;0.90;;;4.30;99.90;;;;;;5434213;26;20232;-74
2024/04/16 03:51:22;;;;;;;2.10;1.13;;;4.30;99.90;;;;;;5437708;26;20793;-71
2024/04/16 03:53:47;;;;;;;1.20;1.05;;;4.30;99.90;;;;;;5434088;26;21073;-72
2024/04/16 03:56:16;;;;;;;0.90;0.70;;;4.20;99.90;;;;;;5438143;26;20231;-71
2024/04/16 03:58:54;;;;;;;1.23;0.85;;;4.20;99.90;;;;;;5435272;26;20237;-72
2024/04/16 04:01:22;;;;;;;1.10;0.75;;;4.20;99.90;;;;;;5441655;26;20283;-71
2024/04/16 04:03:48;;;;;;;0.80;0.70;;;4.10;99.90;;;;;;5450092;26;20562;-71
2024/04/16 04:06:17;;;;;;;1.57;1.10;;;4.10;99.90;;;;;;5450132;26;20321;-72
2024/04/16 04:08:42;;;;;;;2.78;1.00;;;4.00;99.90;;;;;;5449812;26;20244;-71
2024/04/16 04:11:11;;;;;;;0.90;0.80;;;4.00;99.90;;;;;;5449885;26;20273;-71
2024/04/16 04:13:37;;;;;;;1.10;0.80;;;4.00;99.90;;;;;;5446287;26;20335;-74
2024/04/16 04:16:08;;;;;;;1.10;0.88;;;3.90;99.90;;;;;;5453835;26;20239;-71
2024/04/16 04:18:34;;;;;;;3.28;1.38;;;3.90;99.90;;;;;;5451505;26;20287;-71
2024/04/16 04:21:02;;;;;;;2.23;0.93;;;3.90;99.90;;;;;;5449801;26;20575;-71
2024/04/16 04:23:28;;;;;;;1.05;0.85;;;3.90;99.90;;;;;;5452192;26;20674;-71
2024/04/16 04:25:56;;;;;;;0.80;0.70;;;3.90;99.90;;;;;;5443421;26;20234;-71
2024/04/16 04:28:22;;;;;;;0.80;0.75;;;3.90;99.90;;;;;;5453257;26;20880;-71
2024/04/16 04:30:51;;;;;;;0.80;0.80;;;3.80;99.90;;;;;;5452960;26;20241;-71
2024/04/16 04:33:20;;;;;;;0.80;0.70;;;3.80;99.90;;;;;;5454654;26;20233;-73
2024/04/16 04:35:48;;;;;;;1.33;0.90;;;3.80;99.90;;;;;;5453542;26;20242;-73
2024/04/16 04:38:14;;;;;;;1.10;1.00;;;3.80;99.90;;;;;;5453060;26;20233;-73
2024/04/16 04:40:43;;;;;;;1.00;0.80;;;3.80;99.90;;;;;;5452757;26;20711;-73
2024/04/16 04:43:09;;;;;;;1.42;1.10;;;3.80;99.90;;;;;;5453446;26;20268;-73
2024/04/16 04:45:37;;;;;;;1.10;1.00;;;3.70;99.90;;;;;;5452999;26;20234;-73
2024/04/16 04:48:04;;;;;;;0.80;0.70;;;3.70;99.90;;;;;;5453035;26;20237;-73
2024/04/16 04:50:35;;;;;;;1.45;0.85;;;3.80;99.90;;;;;;5452788;26;20231;-71
2024/04/16 04:53:02;;;;;;;1.65;1.10;;;3.80;99.90;;;;;;5444802;26;20278;-71
2024/04/16 04:55:31;;;;;;;4.40;1.20;;;3.80;99.90;;;;;;5452913;26;20730;-71
2024/04/16 04:57:57;;;;;;;1.38;1.17;;;3.80;99.90;;;;;;5452671;26;20243;-71
2024/04/16 05:00:25;;;;;;;1.52;1.05;;;3.80;99.90;;;;;;5452452;26;20276;-71
2024/04/16 05:02:51;;;;;;;2.83;1.10;;;3.80;99.90;;;;;;5452955;26;20230;-71
2024/04/16 05:05:19;;;;;;;0.90;0.80;;;3.90;99.90;;;;;;5452784;26;20289;-73
2024/04/16 05:07:48;;;;;;;3.50;1.10;;;3.80;99.90;;;;;;5453002;26;20231;-74
2024/04/16 05:10:16;;;;;;;4.32;1.10;;;3.80;99.90;;;;;;5452324;26;20249;-71
2024/04/16 05:12:42;;;;;;;1.00;0.90;;;3.80;99.90;;;;;;5453158;26;20605;-72
2024/04/16 05:15:11;;;;;;;1.23;1.00;;;3.90;99.90;;;;;;5453152;26;20239;-72
2024/04/16 05:17:37;;;;;;;1.10;0.70;;;3.90;99.90;;;;;;5447140;26;20349;-72
2024/04/16 05:20:06;;;;;;;1.87;1.20;;;3.90;99.90;;;;;;5452270;26;20233;-72
2024/04/16 05:22:31;;;;;;;2.13;1.13;;;4.00;99.90;;;;;;5452774;26;20738;-72
2024/04/16 05:25:02;;;;;;;2.03;1.03;;;4.10;99.90;;;;;;5452458;26;20313;-71
2024/04/16 05:27:30;;;;;;;5.80;1.08;;;4.10;99.90;;;;;;5452408;26;20712;-72
2024/04/16 05:29:58;;;;;;;3.22;1.10;;;4.20;99.90;;;;;;5451874;26;20242;-71
2024/04/16 05:32:24;;;;;;;1.20;0.93;;;4.30;99.90;;;;;;5452382;26;20251;-72
2024/04/16 05:34:52;;;;;;;2.93;1.20;;;4.30;99.90;;;;;;5451461;26;20358;-71
2024/04/16 05:37:18;;;;;;;1.15;1.05;;;4.30;99.90;;;;;;5452365;26;20289;-72
2024/04/16 05:39:46;;;;;;;1.53;1.10;;;4.30;99.90;;;;;;5451973;26;20241;-71
2024/04/16 05:42:15;;;;;;;1.15;0.95;;;4.40;99.90;;;;;;5452205;26;20237;-72
2024/04/16 05:44:43;;;;;;;0.80;0.70;;;4.40;99.90;;;;;;5452256;26;20243;-72
2024/04/16 05:47:09;;;;;;;1.10;0.90;;;4.40;99.90;;;;;;5452159;26;20619;-72
2024/04/16 05:49:37;;;;;;;2.40;1.17;;;4.40;99.90;;;;;;5451872;26;20230;-71
2024/04/16 05:52:04;;;;;;;2.15;1.23;;;4.40;99.90;;;;;;5444138;26;20240;-72
2024/04/16 05:54:34;;;;;;;3.38;1.02;;;4.60;99.90;;;;;;5452204;26;20296;-72
2024/04/16 05:57:00;;;;;;;7.05;1.80;;;4.70;99.90;;;;;;5452118;26;20236;-72
2024/04/16 05:59:31;;;;;;;2.23;1.50;;;4.80;99.90;;;;;;5451639;26;20343;-72
2024/04/16 06:01:57;;;;;;;2.03;0.90;;;4.90;99.90;;;;;;5452020;26;20232;-72
2024/04/16 06:04:25;;;;;;;1.33;0.90;;;5.00;99.90;;;;;;5451851;26;20866;-72
2024/04/16 06:06:51;;;;;;;1.10;1.00;;;5.10;99.90;;;;;;5451648;26;20235;-72
2024/04/16 06:09:19;;;;;;;1.13;1.03;;;5.20;99.90;;;;;;5451416;26;20275;-72
2024/04/16 06:11:45;;;;;;;3.15;1.20;;;5.30;99.90;;;;;;5451869;26;20232;-72
2024/04/16 06:14:13;;;;;;;2.57;1.70;;;5.50;99.90;;;;;;5451677;26;20781;-71
2024/04/16 06:16:42;;;;;;;1.50;1.08;;;5.50;99.90;;;;;;5451576;26;20233;-72
2024/04/16 06:19:10;;;;;;;6.85;1.33;;;5.60;99.90;;;;;;5444343;26;20243;-72
2024/04/16 06:21:36;;;;;;;2.45;1.00;;;5.70;99.90;;;;;;5445138;26;20313;-72
2024/04/16 06:24:04;;;;;;;2.30;1.43;;;5.80;99.90;;;;;;5451666;26;20417;-72
2024/04/16 06:26:31;;;;;;;1.70;1.30;;;5.80;99.90;;;;;;5451712;26;20237;-72
2024/04/16 06:29:01;;;;;;;2.47;1.15;;;5.80;99.90;;;;;;5451014;26;20677;-72
2024/04/16 06:31:26;;;;;;;3.33;1.08;;;6.00;99.90;;;;;;5451196;26;20319;-72
2024/04/16 06:33:57;;;;;;;3.57;1.40;;;6.10;99.90;;;;;;5450914;26;20244;-72
2024/04/16 06:36:26;;;;;;;1.38;0.90;;;6.10;99.90;;;;;;5451395;26;20236;-72
2024/04/16 06:38:51;;;;;;;2.42;1.10;;;6.10;99.90;;;;;;5451113;26;20233;-72
2024/04/16 06:41:20;;;;;;;7.27;1.60;;;6.10;99.90;;;;;;5451483;26;20244;-72
2024/04/16 06:43:46;;;;;;;1.67;1.10;;;6.10;99.90;;;;;;5451557;26;20237;-72
2024/04/16 06:46:14;;;;;;;4.73;1.50;;;6.20;99.90;;;;;;5449507;26;20241;-72
2024/04/16 06:48:40;;;;;;;6.38;3.55;;;6.40;99.90;;;;;;5450772;26;20269;-72
2024/04/16 06:51:11;;;;;;;1.20;0.80;;;6.40;99.90;;;;;;5450551;26;20245;-72
2024/04/16 06:53:37;;;;;;;1.38;1.10;;;6.50;99.90;;;;;;5432627;26;20348;-72
2024/04/16 06:56:07;;;;;;;2.20;0.87;;;6.60;99.90;;;;;;5429303;26;20242;-72
2024/04/16 06:58:34;;;;;;;2.55;1.33;;;6.80;99.90;;;;;;5450489;26;20464;-72
2024/04/16 07:01:04;;;;;;;3.03;1.08;;;6.80;99.90;;;;;;5450608;26;20277;-72
2024/04/16 07:03:30;;;;;;;2.45;1.23;;;6.90;99.90;;;;;;5450873;26;20338;-72
2024/04/16 07:05:58;;;;;;;3.55;1.50;;;7.00;99.90;;;;;;5451495;26;20291;-72
2024/04/16 07:08:28;;;;;;;2.55;0.93;;;7.00;99.90;;;;;;5451323;26;20279;-72
2024/04/16 07:10:57;;;;;;;2.08;1.23;;;7.10;99.90;;;;;;5450644;26;20238;-72
2024/04/16 07:13:24;;;;;;;2.20;1.20;;;7.30;99.90;;;;;;5450589;26;20233;-73
2024/04/16 07:16:04;;;;;;;1.75;1.00;;;7.40;99.90;;;;;;5439960;26;20281;-72
2024/04/16 07:18:33;;;;;;;2.78;1.00;;;7.50;99.90;;;;;;5447268;26;20271;-72
2024/04/16 07:24:26;;;;;;;1.42;0.90;;;7.50;99.90;;;;;;5446710;26;20279;-72
2024/04/16 07:29:55;;;;;;;2.27;1.63;;;7.70;99.90;;;;;;5917105;21;20296;-72
2024/04/16 07:32:20;;;;;;;3.33;1.55;;;7.80;99.90;;;;;;5440072;26;20343;-71
2024/04/16 07:34:49;;;;;;;2.20;1.50;;;7.80;99.90;;;;;;5444414;26;20245;-72
2024/04/16 07:37:14;;;;;;;1.88;1.17;;;7.80;99.90;;;;;;5444026;26;20651;-72
2024/04/16 07:39:48;;;;;;;1.83;0.90;;;7.90;99.90;;;;;;5450148;26;20238;-72
2024/04/16 07:42:14;;;;;;;5.40;1.17;;;8.00;99.90;;;;;;5450171;26;20230;-72
2024/04/16 07:44:44;;;;;;;1.83;1.00;;;8.10;99.90;;;;;;5450367;26;20330;-72
2024/04/16 07:47:10;;;;;;;3.25;1.05;;;8.20;99.90;;;;;;5449254;26;20574;-72
2024/04/16 07:49:38;;;;;;;2.90;1.70;;;8.20;99.90;;;;;;5449693;26;20731;-72
2024/04/16 07:52:05;;;;;;;2.13;1.10;;;8.20;99.90;;;;;;5448307;26;20476;-71
2024/04/16 07:54:33;;;;;;;2.33;1.33;;;8.20;99.90;;;;;;5448438;26;20981;-72
2024/04/16 07:57:02;;;;;;;1.23;0.98;;;8.50;99.90;;;;;;5439736;26;20238;-72
2024/04/16 07:59:30;;;;;;;2.63;1.65;;;8.80;99.90;;;;;;5449088;26;20467;-72
2024/04/16 08:01:56;;;;;;;1.15;0.70;;;8.90;99.00;;;;;;5449669;26;20683;-72
2024/04/16 08:04:24;;;;;;;4.60;1.13;;;8.90;98.50;;;;;;5449225;26;20342;-72
2024/04/16 08:06:50;;;;;;;1.73;0.90;;;8.70;99.00;;;;;;5449931;26;20249;-72
2024/04/16 08:09:18;;;;;;;0.90;0.80;;;8.70;98.80;;;;;;5448830;26;20675;-72
2024/04/16 08:11:44;;;;;;;2.40;1.20;;;8.70;99.90;;;;;;5450184;26;20238;-72
2024/04/16 08:14:18;;;;;;;1.77;0.90;;;8.90;98.10;;;;;;5444569;26;20342;-73
2024/04/16 08:16:43;;;;;;;2.53;1.45;;;8.90;97.80;;;;;;5441284;26;20272;-73
2024/04/16 08:19:12;;;;;;;2.70;0.97;;;8.90;98.00;;;;;;5439834;26;20730;-73
2024/04/16 08:21:38;;;;;;;1.45;1.10;;;8.80;97.70;;;;;;5436257;26;20581;-73
2024/04/16 08:24:08;;;;;;;0.90;0.80;;;8.70;97.50;;;;;;5435722;26;20238;-73
2024/04/16 08:26:34;;;;;;;1.63;0.82;;;8.80;98.40;;;;;;5449915;26;20230;-73
2024/04/16 08:29:02;;;;;;;4.03;1.20;;;9.20;98.40;;;;;;5439617;26;20241;-73
2024/04/16 08:31:30;;;;;;;1.52;0.95;;;9.30;97.50;;;;;;5444422;26;20769;-73
2024/04/16 08:34:02;;;;;;;1.20;0.85;;;9.60;97.60;;;;;;5441677;26;20238;-74
2024/04/16 08:36:29;;;;;;;3.17;1.20;;;10.20;96.60;;;;;;5449638;26;20234;-73
2024/04/16 08:38:58;;;;;;;0.82;0.68;;;10.60;95.50;;;;;;5436819;26;20603;-72
2024/04/16 08:41:24;;;;;;;0.95;0.80;;;10.70;95.20;;;;;;5446697;26;20233;-73
2024/04/16 08:43:53;;;;;;;2.70;1.07;;;10.90;94.60;;;;;;5439702;26;20251;-74
2024/04/16 08:46:19;;;;;;;1.13;0.98;;;11.20;93.90;;;;;;5445444;26;20479;-73
2024/04/16 08:48:51;;;;;;;1.57;1.10;;;11.30;94.00;;;;;;5442682;26;20973;-73
2024/04/16 08:51:18;;;;;;;1.20;0.88;;;11.30;94.30;;;;;;5449543;26;20535;-73
2024/04/16 08:53:48;;;;;;;7.13;1.23;;;11.00;94.00;;;;;;5442524;26;20241;-73
2024/04/16 08:56:15;;;;;;;1.80;1.20;;;10.70;94.40;;;;;;5445082;26;20230;-73
2024/04/16 08:58:44;;;;;;;1.90;1.17;;;10.40;94.40;;;;;;5442872;26;20644;-73
2024/04/16 09:01:11;;;;;;;3.07;1.50;;;10.60;95.30;;;;;;5433765;26;20245;-72
2024/04/16 09:03:41;;;;;;;1.05;0.85;;;11.30;94.60;;;;;;5438360;26;20527;-73
2024/04/16 09:06:10;;;;;;;1.67;1.10;;;12.00;93.90;;;;;;5437888;26;20694;-73
2024/04/16 09:08:40;;;;;;;3.33;1.30;;;12.70;94.40;;;;;;5425936;26;21056;-73
2024/04/16 09:11:05;;;;;;;1.20;0.90;;;13.00;92.60;;;;;;5440676;26;21082;-70
2024/04/16 09:13:34;;;;;;;2.57;0.93;;;12.70;92.50;;;;;;5447639;26;20468;-71
2024/04/16 09:15:59;;;;;;;0.80;0.70;;;12.10;92.30;;;;;;5452359;26;20734;-70
2024/04/16 09:18:28;;;;;;;2.23;1.40;;;11.70;92.90;;;;;;5447413;26;20515;-70
2024/04/16 09:20:55;;;;;;;1.23;0.80;;;11.80;93.00;;;;;;5452576;26;20246;-72
2024/04/16 09:23:26;;;;;;;2.90;1.03;;;11.60;93.40;;;;;;5447631;26;20893;-72
2024/04/16 09:25:51;;;;;;;1.40;0.98;;;11.30;92.90;;;;;;5453003;26;20515;-72
2024/04/16 09:28:20;;;;;;;1.40;1.07;;;11.00;93.60;;;;;;5436243;26;20638;-72
2024/04/16 09:30:53;;;;;;;2.47;1.20;;;10.70;93.50;;;;;;5443043;26;20273;-72
2024/04/16 09:33:22;;;;;;;1.98;1.30;;;10.50;93.90;;;;;;5447678;26;20245;-71
2024/04/16 09:35:49;;;;;;;1.23;0.90;;;10.40;94.40;;;;;;5452051;26;20234;-72
2024/04/16 09:38:18;;;;;;;2.45;0.95;;;10.20;94.60;;;;;;5451415;26;20242;-71
2024/04/16 09:40:47;;;;;;;1.85;0.90;;;10.10;95.20;;;;;;5442165;26;20280;-72
2024/04/16 09:43:17;;;;;;;1.17;0.95;;;10.20;95.80;;;;;;5449741;26;20272;-72
2024/04/16 09:45:44;;;;;;;2.50;0.95;;;10.20;94.50;;;;;;5435473;26;20232;-72
2024/04/16 09:48:15;;;;;;;0.90;0.80;;;10.10;95.00;;;;;;5447971;26;20242;-70
2024/04/16 09:50:42;;;;;;;1.38;0.85;;;10.00;95.30;;;;;;5428445;26;20253;-72
2024/04/16 09:53:12;;;;;;;8.57;2.00;;;10.00;95.40;;;;;;5449939;26;20250;-72
2024/04/16 09:55:40;;;;;;;3.97;1.20;;;10.00;95.90;;;;;;5437695;26;20772;-72
2024/04/16 09:58:13;;;;;;;0.95;0.80;;;10.00;95.80;;;;;;5451804;26;20238;-72
2024/04/16 10:00:40;;;;;;;1.00;0.88;;;10.10;95.80;;;;;;5439935;26;20234;-71
2024/04/16 10:03:10;;;;;;;2.45;1.10;;;10.00;95.90;;;;;;5452244;26;20264;-72
2024/04/16 10:05:36;;;;;;;1.42;0.90;;;10.20;95.70;;;;;;5438968;26;20734;-72
2024/04/16 10:08:05;;;;;;;1.27;0.70;;;10.40;96.10;;;;;;5451904;26;20409;-70
2024/04/16 10:10:31;;;;;;;1.00;0.80;;;11.00;95.00;;;;;;5450033;26;20785;-71
2024/04/16 10:13:01;;;;;;;1.57;0.80;;;11.30;95.10;;;;;;5451988;26;20334;-71
2024/04/16 10:15:29;;;;;;;2.47;1.10;;;11.70;95.10;;;;;;5451645;26;20489;-72
2024/04/16 10:17:59;;;;;;;1.00;0.80;;;11.80;94.80;;;;;;5451497;26;20365;-71
2024/04/16 10:20:28;;;;;;;1.45;0.80;;;11.50;94.70;;;;;;5448012;26;21063;-72
2024/04/16 10:23:00;;;;;;;2.38;1.17;;;11.10;95.30;;;;;;5441677;26;20238;-72
2024/04/16 10:25:28;;;;;;;1.35;0.95;;;10.70;95.20;;;;;;5451251;26;20229;-72
2024/04/16 10:27:56;;;;;;;1.73;1.00;;;10.30;95.90;;;;;;5451957;26;20284;-72
2024/04/16 10:30:31;;;;;;;1.15;0.82;;;9.90;96.50;;;;;;5450415;26;20234;-72
2024/04/16 10:33:00;;;;;;;1.40;0.95;;;9.70;96.60;;;;;;5442236;26;20245;-72
2024/04/16 10:35:27;;;;;;;1.35;0.98;;;9.60;97.00;;;;;;5445934;26;20246;-72
2024/04/16 10:37:55;;;;;;;4.45;0.80;;;9.60;97.00;;;;;;5440314;26;20254;-72
2024/04/16 10:40:27;;;;;;;2.65;1.20;;;9.80;96.90;;;;;;5437093;26;20583;-72
2024/04/16 10:42:56;;;;;;;3.47;1.02;;;9.90;97.20;;;;;;5450616;26;20241;-72
2024/04/16 10:45:23;;;;;;;2.13;0.90;;;10.10;96.70;;;;;;5450627;26;20620;-72
2024/04/16 10:47:55;;;;;;;2.30;1.08;;;10.20;96.70;;;;;;5451011;26;20276;-71
2024/04/16 10:50:20;;;;;;;0.90;0.70;;;10.50;96.60;;;;;;5450534;26;20234;-72
2024/04/16 10:52:49;;;;;;;0.90;0.80;;;10.90;96.30;;;;;;5450902;26;20307;-72
2024/04/16 10:55:15;;;;;;;0.90;0.70;;;11.10;96.20;;;;;;5449476;26;20234;-72
2024/04/16 10:57:44;;;;;;;3.53;0.93;;;11.50;96.00;;;;;;5437298;26;20246;-72
2024/04/16 11:00:14;;;;;;;0.90;0.70;;;11.60;95.40;;;;;;5450506;26;20487;-71
2024/04/16 11:02:39;;;;;;;1.65;0.85;;;11.50;95.70;;;;;;5436925;26;20269;-72
2024/04/16 11:05:11;;;;;;;0.80;0.70;;;11.50;95.30;;;;;;5436882;26;20237;-72
2024/04/16 11:11:02;;;;;;;1.30;0.80;;;12.60;94.60;;;;;;5447521;26;20252;-72
2024/04/16 11:13:27;;;;;;;1.50;0.77;;;12.40;94.60;;;;;;5450451;26;21011;-72
2024/04/16 11:15:56;;;;;;;1.00;0.70;;;12.00;95.30;;;;;;5450384;26;20567;-71
2024/04/16 11:18:23;;;;;;;2.22;1.05;;;11.70;95.60;;;;;;5450788;26;20242;-71
2024/04/16 11:20:54;;;;;;;1.38;0.90;;;11.70;95.20;;;;;;5440112;26;20234;-72
2024/04/16 11:23:21;;;;;;;1.83;0.90;;;11.50;95.30;;;;;;5432432;26;20348;-72
2024/04/16 11:25:50;;;;;;;0.80;0.70;;;11.10;95.80;;;;;;5450515;26;20633;-72
2024/04/16 11:28:17;;;;;;;0.80;0.77;;;10.70;96.60;;;;;;5448873;26;20269;-71
2024/04/16 11:30:56;;;;;;;1.00;0.80;;;10.50;97.60;;;;;;5430570;26;20246;-72
2024/04/16 11:33:21;;;;;;;1.90;1.33;;;10.50;97.60;;;;;;5448785;26;20366;-72
2024/04/16 11:35:50;;;;;;;1.23;0.70;;;10.80;98.10;;;;;;5450103;26;20242;-72
2024/04/16 11:38:20;;;;;;;0.80;0.70;;;11.00;97.00;;;;;;5434169;26;20476;-72
2024/04/16 11:40:49;;;;;;;1.75;1.10;;;11.20;97.00;;;;;;5437733;26;20234;-72
2024/04/16 11:43:15;;;;;;;1.63;0.80;;;11.40;97.40;;;;;;5450147;26;20250;-72
2024/04/16 11:45:44;;;;;;;0.80;0.70;;;11.60;97.40;;;;;;5450275;26;20234;-72
2024/04/16 11:48:11;;;;;;;1.55;0.80;;;12.00;96.60;;;;;;5450428;26;20589;-72
2024/04/16 11:50:40;;;;;;;2.90;1.00;;;11.90;97.40;;;;;;5435423;26;20245;-72
2024/04/16 11:53:06;;;;;;;1.20;0.77;;;11.90;96.70;;;;;;5450182;26;20447;-72
2024/04/16 11:55:36;;;;;;;1.60;0.90;;;11.60;96.60;;;;;;5450346;26;20467;-72
2024/04/16 11:58:02;;;;;;;0.95;0.77;;;11.50;96.60;;;;;;5449563;26;20291;-72
2024/04/16 12:00:31;;;;;;;0.80;0.80;;;11.10;97.30;;;;;;5449966;26;20237;-72
2024/04/16 12:02:57;;;;;;;0.80;0.70;;;11.00;97.40;;;;;;5450541;26;20475;-71
2024/04/16 12:05:25;;;;;;;0.80;0.60;;;10.90;97.30;;;;;;5450001;26;20272;-72
2024/04/16 12:07:51;;;;;;;2.15;0.90;;;10.90;97.20;;;;;;5449988;26;20238;-73
2024/04/16 12:10:19;;;;;;;1.67;0.80;;;10.80;96.80;;;;;;5447276;26;20281;-71
2024/04/16 12:12:48;;;;;;;1.83;1.20;;;10.50;96.30;;;;;;5449643;26;20230;-72
2024/04/16 12:15:16;;;;;;;1.17;0.80;;;10.40;96.80;;;;;;5450036;26;20238;-72
2024/04/16 12:17:42;;;;;;;1.35;0.70;;;10.30;96.90;;;;;;5449775;26;20241;-72
2024/04/16 12:20:11;;;;;;;1.50;1.00;;;10.30;97.00;;;;;;5449261;26;20242;-72
2024/04/16 12:22:37;;;;;;;0.80;0.80;;;10.40;97.00;;;;;;5443877;26;20280;-72
2024/04/16 12:25:07;;;;;;;1.20;0.87;;;10.30;96.50;;;;;;5439197;26;20234;-71
2024/04/16 12:27:33;;;;;;;2.17;0.80;;;10.20;96.20;;;;;;5433960;26;20283;-71
2024/04/16 12:30:04;;;;;;;0.80;0.60;;;10.10;96.60;;;;;;5438764;26;20238;-72
2024/04/16 12:32:29;;;;;;;1.35;1.02;;;10.20;96.50;;;;;;5448859;26;20264;-71
2024/04/16 12:34:58;;;;;;;1.00;0.70;;;10.20;96.40;;;;;;5449489;26;20242;-71
2024/04/16 12:37:24;;;;;;;1.33;0.90;;;10.30;96.70;;;;;;5449094;26;20350;-72
2024/04/16 12:39:52;;;;;;;1.27;0.90;;;10.80;96.80;;;;;;5448900;26;20238;-72
2024/04/16 12:42:18;;;;;;;0.80;0.77;;;11.20;96.20;;;;;;5449618;26;20572;-72
2024/04/16 12:44:47;;;;;;;1.00;0.80;;;11.60;96.50;;;;;;5451936;26;20722;-72
2024/04/16 12:47:15;;;;;;;1.38;0.70;;;12.10;94.80;;;;;;5452422;26;20237;-72
2024/04/16 12:49:44;;;;;;;0.93;0.80;;;12.10;94.90;;;;;;5452337;26;20355;-72
2024/04/16 12:52:10;;;;;;;1.00;0.75;;;12.40;94.80;;;;;;5453058;26;20234;-72
2024/04/16 12:54:40;;;;;;;0.80;0.60;;;12.90;93.90;;;;;;5452754;26;20680;-72
2024/04/16 12:57:06;;;;;;;0.90;0.70;;;13.40;93.20;;;;;;5452488;26;20523;-71
2024/04/16 12:59:35;;;;;;;1.43;0.83;;;13.50;93.70;;;;;;5452222;26;20478;-72
2024/04/16 13:02:01;;;;;;;4.30;1.10;;;13.50;93.50;;;;;;5452517;26;20638;-71
2024/04/16 13:04:32;;;;;;;0.87;0.70;;;14.00;93.30;;;;;;5439799;26;21103;-72